createdAt,value
2023-04-28T00:00:56.861Z,1.10
2023-04-28T00:03:24.204Z,0.85
2023-04-28T00:05:55.888Z,0.77
2023-04-28T00:08:29.093Z,1.10
2023-04-28T00:11:01.541Z,0.93
2023-04-28T00:13:36.252Z,0.88
2023-04-28T00:16:06.597Z,0.93
2023-04-28T00:18:37.660Z,0.90
2023-04-28T00:21:05.275Z,0.80
2023-04-28T00:23:35.549Z,0.95
2023-04-28T00:26:05.137Z,0.68
2023-04-28T00:28:34.776Z,0.57
2023-04-28T00:31:02.930Z,0.70
2023-04-28T00:33:32.496Z,0.70
2023-04-28T00:36:06.906Z,0.70
2023-04-28T00:38:34.541Z,0.60
2023-04-28T00:41:01.953Z,0.50
2023-04-28T00:43:32.547Z,0.63
2023-04-28T00:46:02.304Z,0.80
2023-04-28T00:48:29.908Z,0.70
2023-04-28T00:50:58.913Z,0.68
2023-04-28T00:53:26.277Z,0.73
2023-04-28T00:55:54.806Z,0.80
2023-04-28T00:58:22.210Z,0.80
2023-04-28T01:00:50.257Z,0.80
2023-04-28T01:03:19.891Z,0.80
2023-04-28T01:05:50.449Z,0.57
2023-04-28T01:08:24.991Z,0.75
2023-04-28T01:10:54.942Z,0.70
2023-04-28T01:13:41.492Z,0.75
2023-04-28T01:16:15.749Z,0.70
2023-04-28T01:18:50.764Z,0.57
2023-04-28T01:21:33.037Z,0.70
2023-04-28T01:24:07.179Z,0.70
2023-04-28T01:26:34.501Z,0.82
2023-04-28T01:29:02.099Z,0.60
2023-04-28T01:31:38.074Z,0.50
2023-04-28T01:34:05.595Z,0.60
2023-04-28T01:36:44.429Z,0.60
2023-04-28T01:39:15.258Z,0.70
2023-04-28T01:41:42.921Z,0.60
2023-04-28T01:44:10.417Z,0.80
2023-04-28T01:46:37.833Z,0.70
2023-04-28T01:49:05.116Z,0.68
2023-04-28T01:51:35.518Z,0.80
2023-04-28T01:54:12.759Z,0.75
2023-04-28T01:56:42.597Z,0.65
2023-04-28T01:59:23.177Z,0.65
2023-04-28T02:01:50.844Z,0.60
2023-04-28T02:04:21.345Z,0.50
2023-04-28T02:06:48.742Z,0.60
2023-04-28T02:09:17.295Z,0.50
2023-04-28T02:11:44.650Z,0.70
2023-04-28T02:14:24.836Z,0.60
2023-04-28T02:16:54.751Z,0.70
2023-04-28T02:19:29.268Z,0.60
2023-04-28T02:21:59.761Z,1.02
2023-04-28T02:24:30.885Z,0.70
2023-04-28T02:27:00.865Z,0.80
2023-04-28T02:29:29.458Z,0.75
2023-04-28T02:32:03.571Z,0.60
2023-04-28T02:34:31.057Z,0.85
2023-04-28T02:37:00.262Z,0.80
2023-04-28T02:39:31.401Z,0.60
2023-04-28T02:42:00.860Z,0.80
2023-04-28T02:44:28.216Z,0.73
2023-04-28T02:46:55.508Z,0.65
2023-04-28T02:49:31.373Z,0.60
2023-04-28T02:52:03.893Z,0.63
2023-04-28T02:54:35.544Z,0.77
2023-04-28T02:57:04.764Z,0.80
2023-04-28T02:59:32.121Z,0.98
2023-04-28T03:02:00.093Z,0.85
2023-04-28T03:04:30.280Z,0.90
2023-04-28T03:07:07.258Z,0.98
2023-04-28T03:09:41.170Z,0.50
2023-04-28T03:12:18.046Z,0.88
2023-04-28T03:14:48.129Z,0.63
2023-04-28T03:17:18.198Z,0.40
2023-04-28T03:19:46.882Z,0.75
2023-04-28T03:22:18.564Z,0.93
2023-04-28T03:24:47.206Z,0.60
2023-04-28T03:27:21.117Z,0.70
2023-04-28T03:29:52.630Z,0.70
2023-04-28T03:32:20.119Z,0.90
2023-04-28T03:34:51.990Z,0.63
2023-04-28T03:37:19.414Z,0.70
2023-04-28T03:39:49.098Z,0.75
2023-04-28T03:42:19.038Z,0.93
2023-04-28T03:45:17.082Z,1.25
2023-04-28T03:47:50.793Z,0.70
2023-04-28T03:50:19.012Z,0.80
2023-04-28T03:52:46.607Z,0.80
2023-04-28T03:55:18.897Z,0.70
2023-04-28T03:57:51.217Z,0.60
2023-04-28T04:00:23.506Z,1.05
2023-04-28T04:02:56.350Z,0.68
2023-04-28T04:05:28.614Z,0.60
2023-04-28T04:10:24.730Z,0.73
2023-04-28T04:12:52.051Z,0.63
2023-04-28T04:15:19.296Z,0.70
2023-04-28T04:17:50.215Z,0.68
2023-04-28T04:20:21.290Z,0.77
2023-04-28T04:22:48.568Z,0.75
2023-04-28T04:25:16.000Z,0.63
2023-04-28T04:27:48.095Z,0.75
2023-04-28T04:30:15.901Z,0.77
2023-04-28T04:32:49.505Z,0.90
2023-04-28T04:35:19.617Z,0.60
2023-04-28T04:37:51.836Z,0.85
2023-04-28T04:40:20.443Z,0.75
2023-04-28T04:42:50.587Z,0.93
2023-04-28T04:45:19.691Z,0.70
2023-04-28T04:47:47.805Z,0.80
2023-04-28T04:50:18.517Z,1.00
2023-04-28T04:52:54.357Z,0.60
2023-04-28T04:55:28.490Z,0.80
2023-04-28T04:58:01.798Z,0.85
2023-04-28T05:00:30.253Z,0.70
2023-04-28T05:03:01.084Z,0.60
2023-04-28T05:05:38.504Z,1.00
2023-04-28T05:08:16.773Z,0.70
2023-04-28T05:10:46.915Z,0.73
2023-04-28T05:13:17.597Z,1.00
2023-04-28T05:15:45.345Z,0.63
2023-04-28T05:18:30.631Z,0.95
2023-04-28T05:21:06.798Z,0.60
2023-04-28T05:23:37.039Z,0.52
2023-04-28T05:26:05.229Z,1.05
2023-04-28T05:28:32.852Z,1.10
2023-04-28T05:31:02.080Z,0.88
2023-04-28T05:33:31.440Z,0.82
2023-04-28T05:36:00.149Z,1.23
2023-04-28T05:38:31.341Z,1.10
2023-04-28T05:41:01.139Z,1.00
2023-04-28T05:43:32.262Z,0.95
2023-04-28T05:46:00.662Z,1.20
2023-04-28T05:48:31.620Z,1.45
2023-04-28T05:51:06.296Z,1.10
2023-04-28T05:53:33.976Z,1.05
2023-04-28T05:56:03.346Z,1.00
2023-04-28T05:58:33.141Z,1.20
2023-04-28T06:01:00.483Z,1.10
2023-04-28T06:03:30.295Z,1.20
2023-04-28T06:05:57.917Z,0.98
2023-04-28T06:08:26.904Z,0.88
2023-04-28T06:10:54.242Z,1.30
2023-04-28T06:13:21.890Z,1.33
2023-04-28T06:15:51.105Z,1.20
2023-04-28T06:18:18.372Z,1.15
2023-04-28T06:20:45.475Z,1.05
2023-04-28T06:23:12.717Z,1.20
2023-04-28T06:25:45.043Z,1.17
2023-04-28T06:28:15.691Z,0.98
2023-04-28T06:30:46.250Z,1.70
2023-04-28T06:33:15.854Z,1.48
2023-04-28T06:35:42.922Z,1.30
2023-04-28T06:38:10.136Z,1.33
2023-04-28T06:40:37.662Z,1.33
2023-04-28T06:43:06.764Z,1.95
2023-04-28T06:45:38.833Z,1.10
2023-04-28T06:48:07.092Z,1.50
2023-04-28T06:50:38.571Z,1.45
2023-04-28T06:53:09.109Z,1.80
2023-04-28T06:55:40.151Z,1.90
2023-04-28T06:58:09.984Z,1.85
2023-04-28T07:00:39.594Z,2.30
2023-04-28T07:03:09.610Z,2.80
2023-04-28T07:05:40.546Z,2.00
2023-04-28T07:08:08.343Z,1.70
2023-04-28T07:10:36.843Z,1.50
2023-04-28T07:13:06.545Z,1.75
2023-04-28T07:15:36.573Z,1.85
2023-04-28T07:18:04.073Z,2.95
2023-04-28T07:20:31.363Z,1.80
2023-04-28T07:23:03.739Z,1.73
2023-04-28T07:25:41.781Z,1.77
2023-04-28T07:28:09.780Z,1.40
2023-04-28T07:30:37.172Z,1.85
2023-04-28T07:33:05.805Z,1.77
2023-04-28T07:35:35.604Z,1.60
2023-04-28T07:38:03.164Z,1.95
2023-04-28T07:40:30.535Z,2.38
2023-04-28T07:43:03.791Z,2.55
2023-04-28T07:45:35.837Z,1.90
2023-04-28T07:48:08.424Z,2.60
2023-04-28T07:50:35.633Z,1.98
2023-04-28T07:53:02.850Z,1.83
2023-04-28T07:55:34.985Z,2.20
2023-04-28T07:58:23.518Z,2.53
2023-04-28T08:00:54.014Z,2.35
2023-04-28T08:03:48.088Z,2.33
2023-04-28T08:06:21.056Z,2.05
2023-04-28T08:08:49.469Z,2.67
2023-04-28T08:11:16.808Z,2.50
2023-04-28T08:13:43.955Z,2.45
2023-04-28T08:16:11.727Z,2.45
2023-04-28T08:18:40.109Z,2.78
2023-04-28T08:21:07.334Z,2.10
2023-04-28T08:23:34.426Z,2.30
2023-04-28T08:26:01.521Z,2.60
2023-04-28T08:28:29.282Z,2.60
2023-04-28T08:30:58.669Z,2.65
2023-04-28T08:33:26.158Z,2.03
2023-04-28T08:35:53.547Z,3.08
2023-04-28T08:38:25.404Z,4.15
2023-04-28T08:40:52.833Z,2.78
2023-04-28T08:43:21.963Z,3.22
2023-04-28T08:45:58.769Z,2.88
2023-04-28T08:48:41.939Z,3.40
2023-04-28T08:51:31.284Z,3.33
2023-04-28T08:54:26.464Z,3.55
2023-04-28T08:57:02.620Z,2.38
2023-04-28T08:59:35.593Z,2.45
2023-04-28T09:02:15.596Z,2.38
2023-04-28T09:04:51.048Z,2.50
2023-04-28T09:07:18.624Z,3.17
2023-04-28T09:09:48.481Z,3.38
2023-04-28T09:12:16.033Z,2.80
2023-04-28T09:14:43.224Z,3.00
2023-04-28T09:17:13.045Z,2.45
2023-04-28T09:19:43.396Z,2.60
2023-04-28T09:22:25.600Z,2.88
2023-04-28T09:24:56.434Z,2.42
2023-04-28T09:27:28.314Z,3.05
2023-04-28T09:29:55.842Z,2.92
2023-04-28T09:32:24.498Z,2.65
2023-04-28T09:35:02.579Z,3.05
2023-04-28T09:37:32.546Z,2.63
2023-04-28T09:40:08.759Z,2.60
2023-04-28T09:42:38.593Z,2.88
2023-04-28T09:45:11.356Z,2.72
2023-04-28T09:47:41.055Z,2.70
2023-04-28T09:50:17.594Z,2.63
2023-04-28T09:53:19.593Z,2.55
2023-04-28T10:02:41.965Z,2.53
2023-04-28T10:05:49.169Z,2.30
2023-04-28T10:12:46.049Z,2.40
2023-04-28T10:18:59.386Z,2.00
2023-04-28T10:21:30.942Z,2.15
2023-04-28T10:24:32.209Z,2.67
2023-04-28T10:27:10.053Z,2.42
2023-04-28T10:29:39.336Z,2.58
2023-04-28T10:32:16.667Z,2.63
2023-04-28T10:34:45.062Z,2.65
2023-04-28T10:37:19.528Z,2.33
2023-04-28T10:40:24.251Z,1.85
2023-04-28T10:43:00.868Z,2.08
2023-04-28T10:46:01.828Z,2.53
2023-04-28T10:48:58.087Z,1.88
2023-04-28T10:51:38.334Z,2.28
2023-04-28T10:54:25.572Z,2.35
2023-04-28T10:57:43.546Z,2.75
2023-04-28T11:03:52.608Z,3.17
2023-04-28T11:07:17.377Z,4.32
2023-04-28T11:09:54.703Z,4.07
2023-04-28T11:13:12.323Z,4.78
2023-04-28T11:15:43.528Z,4.75
2023-04-28T11:18:21.534Z,3.85
2023-04-28T11:21:01.868Z,3.47
2023-04-28T11:23:32.624Z,5.13
2023-04-28T11:26:05.833Z,3.80
2023-04-28T11:29:06.551Z,3.72
2023-04-28T11:34:40.243Z,3.20
2023-04-28T11:37:21.326Z,4.03
2023-04-28T11:39:55.226Z,3.25
2023-04-28T11:43:09.458Z,2.92
2023-04-28T11:45:47.179Z,3.15
2023-04-28T11:49:06.152Z,3.13
2023-04-28T11:58:10.114Z,2.50
2023-04-28T12:00:44.493Z,2.80
2023-04-28T12:11:19.635Z,5.68
2023-04-28T12:14:09.745Z,4.70
2023-04-28T12:16:44.118Z,6.28
2023-04-28T12:19:12.701Z,5.65
2023-04-28T12:22:07.746Z,4.97
2023-04-28T12:24:37.700Z,5.38
2023-04-28T12:27:20.809Z,6.18
2023-04-28T12:29:48.826Z,5.22
2023-04-28T12:36:30.800Z,5.95
2023-04-28T12:44:17.862Z,6.43
2023-04-28T12:57:05.698Z,6.50
2023-04-28T13:03:51.459Z,6.57
2023-04-28T13:09:00.640Z,6.57
2023-04-28T13:17:02.988Z,6.15
2023-04-28T13:19:31.634Z,5.57
2023-04-28T13:22:11.065Z,4.80
2023-04-28T13:24:38.246Z,5.70
2023-04-28T13:27:10.046Z,4.78
2023-04-28T13:29:38.063Z,5.05
2023-04-28T13:32:08.415Z,4.65
2023-04-28T13:34:37.661Z,4.30
2023-04-28T13:37:04.881Z,4.57
2023-04-28T13:39:32.691Z,5.03
2023-04-28T13:42:00.158Z,4.07
2023-04-28T13:44:27.109Z,4.93
2023-04-28T13:46:58.728Z,4.03
2023-04-28T13:49:32.105Z,4.43
2023-04-28T13:52:03.632Z,4.20
2023-04-28T13:54:33.780Z,4.57
2023-04-28T14:01:43.464Z,4.50
2023-04-28T14:04:15.767Z,4.55
2023-04-28T14:06:43.151Z,5.30
2023-04-28T14:22:11.248Z,3.95
2023-04-28T14:24:49.372Z,4.25
2023-04-28T14:27:34.283Z,3.22
2023-04-28T14:30:04.879Z,3.85
2023-04-28T14:32:32.248Z,3.15
2023-04-28T14:34:59.880Z,3.45
2023-04-28T14:37:28.530Z,3.13
2023-04-28T14:39:58.639Z,3.33
2023-04-28T14:42:39.223Z,2.85
2023-04-28T14:45:09.192Z,2.83
2023-04-28T14:47:39.288Z,2.47
2023-04-28T14:50:13.824Z,2.60
2023-04-28T14:52:44.611Z,2.17
2023-04-28T14:55:16.863Z,1.55
2023-04-28T14:57:44.200Z,2.30
2023-04-28T15:00:20.308Z,1.83
2023-04-28T15:02:47.603Z,2.53
2023-04-28T15:05:17.077Z,2.20
2023-04-28T15:07:44.249Z,1.90
2023-04-28T15:10:14.067Z,2.20
2023-04-28T15:12:51.973Z,1.73
2023-04-28T15:15:44.759Z,2.40
2023-04-28T15:18:18.100Z,2.10
2023-04-28T15:20:45.962Z,1.77
2023-04-28T15:23:20.167Z,1.90
2023-04-28T15:25:48.111Z,2.45
2023-04-28T15:28:18.281Z,2.90
2023-04-28T15:30:48.068Z,2.80
2023-04-28T15:33:17.946Z,3.55
2023-04-28T15:35:45.571Z,2.78
2023-04-28T15:38:13.187Z,3.33
2023-04-28T15:40:47.247Z,2.72
2023-04-28T15:43:20.311Z,3.58
2023-04-28T15:45:47.703Z,4.28
2023-04-28T15:48:21.204Z,4.85
2023-04-28T15:51:00.280Z,5.25
2023-04-28T15:53:30.159Z,5.93
2023-04-28T15:55:58.896Z,5.50
2023-04-28T15:58:26.941Z,6.22
2023-04-28T16:00:54.179Z,6.57
2023-04-28T16:03:21.543Z,5.15
2023-04-28T16:05:52.285Z,5.95
2023-04-28T16:08:20.813Z,5.97
2023-04-28T16:10:48.160Z,6.50
2023-04-28T16:13:15.442Z,5.80
2023-04-28T16:15:43.994Z,6.80
2023-04-28T16:18:11.362Z,4.88
2023-04-28T16:20:38.680Z,4.53
2023-04-28T16:23:07.003Z,4.90
2023-04-28T16:25:34.217Z,6.15
2023-04-28T16:28:01.483Z,6.32
2023-04-28T16:30:32.736Z,6.47
2023-04-28T16:33:03.056Z,6.60
2023-04-28T16:35:32.780Z,6.35
2023-04-28T16:38:01.243Z,6.47
2023-04-28T16:40:35.995Z,6.70
2023-04-28T16:43:05.046Z,7.57
2023-04-28T16:45:36.307Z,6.85
2023-04-28T16:48:06.346Z,7.07
2023-04-28T16:50:33.872Z,7.05
2023-04-28T16:53:01.031Z,6.60
2023-04-28T16:55:37.522Z,6.40
2023-04-28T16:58:42.554Z,5.97
2023-04-28T17:01:09.814Z,6.93
2023-04-28T17:03:59.400Z,6.05
2023-04-28T17:06:28.747Z,5.43
2023-04-28T17:09:10.212Z,5.25
2023-04-28T17:11:38.092Z,6.72
2023-04-28T17:14:07.377Z,5.95
2023-04-28T17:16:38.519Z,6.28
2023-04-28T17:19:06.527Z,5.63
2023-04-28T17:21:33.833Z,6.07
2023-04-28T17:24:02.291Z,6.43
2023-04-28T17:26:36.706Z,6.57
2023-04-28T17:29:07.021Z,6.50
2023-04-28T17:31:38.246Z,6.32
2023-04-28T17:34:16.504Z,5.65
2023-04-28T17:36:43.862Z,6.13
2023-04-28T17:39:15.576Z,6.20
2023-04-28T17:41:43.724Z,4.57
2023-04-28T17:44:10.798Z,3.88
2023-04-28T17:46:38.676Z,3.92
2023-04-28T17:49:26.956Z,3.83
2023-04-28T17:52:16.346Z,3.22
2023-04-28T17:54:43.673Z,2.63
2023-04-28T17:58:36.955Z,2.70
2023-04-28T18:04:19.837Z,2.30
2023-04-28T18:16:12.519Z,2.05
2023-04-28T18:18:38.242Z,1.83
2023-04-28T18:21:05.660Z,1.88
2023-04-28T18:23:45.108Z,1.92
2023-04-28T18:26:18.211Z,2.60
2023-04-28T18:28:48.375Z,2.13
2023-04-28T18:34:45.571Z,1.75
2023-04-28T18:44:38.807Z,1.85
2023-04-28T18:47:39.307Z,2.03
2023-04-28T18:50:41.147Z,2.00
2023-04-28T18:53:13.616Z,1.38
2023-04-28T18:55:45.800Z,1.50
2023-04-28T19:01:21.489Z,1.58
2023-04-28T19:03:49.394Z,2.53
2023-04-28T19:06:19.406Z,1.83
2023-04-28T19:08:46.501Z,1.83
2023-04-28T19:11:13.890Z,2.53
2023-04-28T19:13:44.929Z,2.53
2023-04-28T19:16:12.395Z,2.50
2023-04-28T19:18:42.334Z,3.50
2023-04-28T19:21:12.293Z,2.85
2023-04-28T19:23:43.482Z,3.90
2023-04-28T19:26:16.799Z,4.30
2023-04-28T19:28:44.425Z,4.00
2023-04-28T19:32:03.542Z,3.88
2023-04-28T19:34:42.063Z,4.22
2023-04-28T19:37:20.115Z,4.70
2023-04-28T19:40:06.328Z,4.70
2023-04-28T19:42:39.387Z,4.53
2023-04-28T19:45:18.164Z,4.20
2023-04-28T19:48:20.070Z,4.43
2023-04-28T19:52:03.637Z,3.53
2023-04-28T19:56:16.072Z,4.72
2023-04-28T19:58:55.844Z,4.50
2023-04-28T20:01:35.789Z,5.95
2023-04-28T20:04:17.720Z,6.18
2023-04-28T20:06:50.881Z,6.97
2023-04-28T20:09:52.884Z,7.63
2023-04-28T20:16:09.534Z,7.15
2023-04-28T20:19:01.426Z,8.02
2023-04-28T20:22:02.226Z,8.55
2023-04-28T20:32:32.759Z,11.90
2023-04-28T20:40:04.815Z,11.15
2023-04-28T20:42:33.388Z,11.85
2023-04-28T20:45:00.550Z,11.35
2023-04-28T20:47:28.100Z,12.45
2023-04-28T20:49:55.177Z,11.52
2023-04-28T20:52:22.399Z,12.43
2023-04-28T20:54:49.568Z,11.27
2023-04-28T20:57:16.706Z,12.65
2023-04-28T20:59:44.335Z,11.85
2023-04-28T21:02:11.484Z,13.68
2023-04-28T21:04:38.840Z,13.13
2023-04-28T21:07:05.990Z,12.25
2023-04-28T21:09:33.363Z,12.32
2023-04-28T21:12:00.812Z,12.73
2023-04-28T21:14:27.853Z,10.40
2023-04-28T21:16:55.011Z,12.13
2023-04-28T21:19:22.104Z,14.05
2023-04-28T21:21:49.202Z,13.65
2023-04-28T21:24:16.549Z,11.95
2023-04-28T21:26:44.943Z,13.27
2023-04-28T21:29:12.175Z,11.07
2023-04-28T21:31:39.628Z,14.18
2023-04-28T21:34:06.757Z,12.98
2023-04-28T21:36:36.795Z,10.50
2023-04-28T21:39:04.770Z,12.27
2023-04-28T21:41:32.051Z,19.35
2023-04-28T21:43:59.990Z,18.73
2023-04-28T21:46:50.414Z,18.70
2023-04-28T21:49:18.199Z,22.95
2023-04-28T21:51:46.016Z,23.80
2023-04-28T21:54:15.074Z,19.70
2023-04-28T21:56:42.275Z,20.90
2023-04-28T21:59:09.413Z,22.10
2023-04-28T22:01:36.636Z,23.08
2023-04-28T22:04:13.347Z,22.60
2023-04-28T22:06:40.845Z,20.90
2023-04-28T22:09:08.020Z,22.58
2023-04-28T22:11:35.160Z,22.95
2023-04-28T22:14:02.643Z,22.17
2023-04-28T22:16:29.880Z,21.67
2023-04-28T22:18:57.608Z,25.70
2023-04-28T22:21:24.859Z,21.67
2023-04-28T22:23:52.000Z,25.58
2023-04-28T22:26:31.327Z,23.20
2023-04-28T22:29:02.259Z,20.60
2023-04-28T22:31:29.345Z,21.00
2023-04-28T22:33:56.557Z,21.10
2023-04-28T22:36:26.445Z,20.52
2023-04-28T22:38:53.583Z,16.08
2023-04-28T22:41:20.646Z,15.55
2023-04-28T22:43:47.801Z,17.77
2023-04-28T22:46:18.360Z,18.42
2023-04-28T22:48:45.762Z,16.73
2023-04-28T22:51:14.285Z,15.65
2023-04-28T22:53:44.360Z,14.73
2023-04-28T22:56:14.484Z,16.05
2023-04-28T22:58:41.854Z,14.57
2023-04-28T23:01:09.476Z,15.48
2023-04-28T23:03:38.476Z,16.45
2023-04-28T23:06:05.840Z,14.70
2023-04-28T23:08:35.329Z,12.73
2023-04-28T23:11:06.881Z,14.05
2023-04-28T23:13:34.116Z,14.57
2023-04-28T23:16:01.744Z,13.98
2023-04-28T23:18:33.246Z,11.60
2023-04-28T23:21:00.593Z,11.05
2023-04-28T23:23:27.662Z,10.75
2023-04-28T23:25:55.748Z,11.48
2023-04-28T23:28:25.826Z,10.85
2023-04-28T23:30:55.540Z,9.68
2023-04-28T23:33:22.691Z,10.00
2023-04-28T23:35:49.881Z,8.98
2023-04-28T23:38:17.031Z,11.00
2023-04-28T23:40:44.240Z,10.90
2023-04-28T23:43:11.457Z,9.50
2023-04-28T23:45:38.727Z,10.65
2023-04-28T23:48:07.468Z,9.45
2023-04-28T23:50:34.683Z,9.43
2023-04-28T23:53:01.902Z,11.23
2023-04-28T23:55:31.749Z,10.13
2023-04-28T23:58:01.247Z,10.32
